sensor_id;sensor_type;location;lat;lon;timestamp;temperature;humidity
24152;DHT22;12311;50.866;4.332;2022-11-11T00:00:30;10.40;99.90
24152;DHT22;12311;50.866;4.332;2022-11-11T00:02:57;10.40;99.90
24152;DHT22;12311;50.866;4.332;2022-11-11T00:05:23;10.40;99.90
24152;DHT22;12311;50.866;4.332;2022-11-11T00:07:52;10.40;99.90
24152;DHT22;12311;50.866;4.332;2022-11-11T00:10:18;10.40;99.90
24152;DHT22;12311;50.866;4.332;2022-11-11T00:12:44;10.40;99.90
24152;DHT22;12311;50.866;4.332;2022-11-11T00:15:10;10.50;99.90
24152;DHT22;12311;50.866;4.332;2022-11-11T00:17:36;10.50;99.90
24152;DHT22;12311;50.866;4.332;2022-11-11T00:20:20;10.50;99.90
24152;DHT22;12311;50.866;4.332;2022-11-11T00:23:04;10.50;99.90
24152;DHT22;12311;50.866;4.332;2022-11-11T00:25:52;10.40;99.90
24152;DHT22;12311;50.866;4.332;2022-11-11T00:28:18;10.50;99.90
24152;DHT22;12311;50.866;4.332;2022-11-11T00:30:44;10.50;99.90
24152;DHT22;12311;50.866;4.332;2022-11-11T00:33:11;10.50;99.90
24152;DHT22;12311;50.866;4.332;2022-11-11T00:35:36;10.50;99.90
24152;DHT22;12311;50.866;4.332;2022-11-11T00:38:20;10.40;99.90
24152;DHT22;12311;50.866;4.332;2022-11-11T00:41:05;10.40;99.90
24152;DHT22;12311;50.866;4.332;2022-11-11T00:43:30;10.40;99.90
24152;DHT22;12311;50.866;4.332;2022-11-11T00:45:56;10.30;99.90
24152;DHT22;12311;50.866;4.332;2022-11-11T00:48:42;10.30;99.90
24152;DHT22;12311;50.866;4.332;2022-11-11T00:51:26;10.40;99.90
24152;DHT22;12311;50.866;4.332;2022-11-11T00:53:52;10.30;99.90
24152;DHT22;12311;50.866;4.332;2022-11-11T00:56:18;10.40;99.90
24152;DHT22;12311;50.866;4.332;2022-11-11T00:58:44;10.30;99.90
24152;DHT22;12311;50.866;4.332;2022-11-11T01:01:10;10.20;99.90
24152;DHT22;12311;50.866;4.332;2022-11-11T01:03:36;10.20;99.90
24152;DHT22;12311;50.866;4.332;2022-11-11T01:06:03;10.20;99.90
24152;DHT22;12311;50.866;4.332;2022-11-11T01:08:30;10.30;99.90
24152;DHT22;12311;50.866;4.332;2022-11-11T01:10:56;10.20;99.90
24152;DHT22;12311;50.866;4.332;2022-11-11T01:13:29;10.20;99.90
24152;DHT22;12311;50.866;4.332;2022-11-11T01:16:06;10.20;99.90
24152;DHT22;12311;50.866;4.332;2022-11-11T01:18:33;10.30;99.90
24152;DHT22;12311;50.866;4.332;2022-11-11T01:23:31;10.40;99.90
24152;DHT22;12311;50.866;4.332;2022-11-11T01:26:05;10.30;99.90
24152;DHT22;12311;50.866;4.332;2022-11-11T01:28:32;10.30;99.90
24152;DHT22;12311;50.866;4.332;2022-11-11T01:31:07;10.30;99.90
24152;DHT22;12311;50.866;4.332;2022-11-11T01:33:32;10.40;99.90
24152;DHT22;12311;50.866;4.332;2022-11-11T01:36:18;10.30;99.90
24152;DHT22;12311;50.866;4.332;2022-11-11T01:38:49;10.30;99.90
24152;DHT22;12311;50.866;4.332;2022-11-11T01:41:18;10.40;99.90
24152;DHT22;12311;50.866;4.332;2022-11-11T01:44:40;10.40;99.90
24152;DHT22;12311;50.866;4.332;2022-11-11T01:47:06;10.40;99.90
24152;DHT22;12311;50.866;4.332;2022-11-11T01:49:37;10.30;99.90
24152;DHT22;12311;50.866;4.332;2022-11-11T01:54:45;10.00;99.90
24152;DHT22;12311;50.866;4.332;2022-11-11T01:57:21;10.10;99.90
24152;DHT22;12311;50.866;4.332;2022-11-11T01:59:57;10.10;99.90
24152;DHT22;12311;50.866;4.332;2022-11-11T02:02:36;10.10;99.90
24152;DHT22;12311;50.866;4.332;2022-11-11T02:05:04;10.10;99.90
24152;DHT22;12311;50.866;4.332;2022-11-11T02:07:49;10.10;99.90
24152;DHT22;12311;50.866;4.332;2022-11-11T02:10:19;10.10;99.90
24152;DHT22;12311;50.866;4.332;2022-11-11T02:12:46;10.10;99.90
24152;DHT22;12311;50.866;4.332;2022-11-11T02:15:30;10.10;99.90
24152;DHT22;12311;50.866;4.332;2022-11-11T02:17:56;10.10;99.90
24152;DHT22;12311;50.866;4.332;2022-11-11T02:20:27;10.10;99.90
24152;DHT22;12311;50.866;4.332;2022-11-11T02:23:16;10.00;99.90
24152;DHT22;12311;50.866;4.332;2022-11-11T02:25:46;10.20;99.90
24152;DHT22;12311;50.866;4.332;2022-11-11T02:28:13;10.20;99.90
24152;DHT22;12311;50.866;4.332;2022-11-11T02:30:40;10.20;99.90
24152;DHT22;12311;50.866;4.332;2022-11-11T02:33:05;10.00;99.90
24152;DHT22;12311;50.866;4.332;2022-11-11T02:35:37;10.10;99.90
24152;DHT22;12311;50.866;4.332;2022-11-11T02:38:05;10.20;99.90
24152;DHT22;12311;50.866;4.332;2022-11-11T02:40:44;10.20;99.90
24152;DHT22;12311;50.866;4.332;2022-11-11T02:43:31;10.20;99.90
24152;DHT22;12311;50.866;4.332;2022-11-11T02:45:57;10.20;99.90
24152;DHT22;12311;50.866;4.332;2022-11-11T02:48:23;10.10;99.90
24152;DHT22;12311;50.866;4.332;2022-11-11T02:50:49;10.00;99.90
24152;DHT22;12311;50.866;4.332;2022-11-11T02:53:15;10.00;99.90
24152;DHT22;12311;50.866;4.332;2022-11-11T02:55:41;10.00;99.90
24152;DHT22;12311;50.866;4.332;2022-11-11T02:58:06;9.90;99.90
24152;DHT22;12311;50.866;4.332;2022-11-11T03:00:32;9.90;99.90
24152;DHT22;12311;50.866;4.332;2022-11-11T03:03:01;9.90;99.90
24152;DHT22;12311;50.866;4.332;2022-11-11T03:05:27;9.90;99.90
24152;DHT22;12311;50.866;4.332;2022-11-11T03:07:52;9.90;99.90
24152;DHT22;12311;50.866;4.332;2022-11-11T03:10:18;9.90;99.90
24152;DHT22;12311;50.866;4.332;2022-11-11T03:12:44;9.80;99.90
24152;DHT22;12311;50.866;4.332;2022-11-11T03:15:09;9.80;99.90
24152;DHT22;12311;50.866;4.332;2022-11-11T03:17:35;9.80;99.90
24152;DHT22;12311;50.866;4.332;2022-11-11T03:20:13;9.90;99.90
24152;DHT22;12311;50.866;4.332;2022-11-11T03:23:02;9.90;99.90
24152;DHT22;12311;50.866;4.332;2022-11-11T03:25:28;9.90;99.90
24152;DHT22;12311;50.866;4.332;2022-11-11T03:28:09;10.00;99.90
24152;DHT22;12311;50.866;4.332;2022-11-11T03:30:36;10.00;99.90
24152;DHT22;12311;50.866;4.332;2022-11-11T03:33:02;9.90;99.90
24152;DHT22;12311;50.866;4.332;2022-11-11T03:35:29;9.80;99.90
24152;DHT22;12311;50.866;4.332;2022-11-11T03:37:54;9.90;99.90
24152;DHT22;12311;50.866;4.332;2022-11-11T03:40:39;9.90;99.90
24152;DHT22;12311;50.866;4.332;2022-11-11T03:43:05;9.80;99.90
24152;DHT22;12311;50.866;4.332;2022-11-11T03:45:33;9.70;99.90
24152;DHT22;12311;50.866;4.332;2022-11-11T03:47:59;9.70;99.90
24152;DHT22;12311;50.866;4.332;2022-11-11T03:50:25;9.80;99.90
24152;DHT22;12311;50.866;4.332;2022-11-11T03:52:50;9.80;99.90
24152;DHT22;12311;50.866;4.332;2022-11-11T03:55:16;9.80;99.90
24152;DHT22;12311;50.866;4.332;2022-11-11T03:57:44;9.70;99.90
24152;DHT22;12311;50.866;4.332;2022-11-11T04:00:12;9.70;99.90
24152;DHT22;12311;50.866;4.332;2022-11-11T04:02:38;9.60;99.90
24152;DHT22;12311;50.866;4.332;2022-11-11T04:05:23;9.60;99.90
24152;DHT22;12311;50.866;4.332;2022-11-11T04:08:11;9.60;99.90
24152;DHT22;12311;50.866;4.332;2022-11-11T04:10:57;9.60;99.90
24152;DHT22;12311;50.866;4.332;2022-11-11T04:13:23;9.60;99.90
24152;DHT22;12311;50.866;4.332;2022-11-11T04:16:07;9.70;99.90
24152;DHT22;12311;50.866;4.332;2022-11-11T04:18:36;9.80;99.90
24152;DHT22;12311;50.866;4.332;2022-11-11T04:21:24;9.80;99.90
24152;DHT22;12311;50.866;4.332;2022-11-11T04:24:15;9.80;99.90
24152;DHT22;12311;50.866;4.332;2022-11-11T04:27:02;9.80;99.90
24152;DHT22;12311;50.866;4.332;2022-11-11T04:29:29;9.80;99.90
24152;DHT22;12311;50.866;4.332;2022-11-11T04:32:03;9.80;99.90
24152;DHT22;12311;50.866;4.332;2022-11-11T04:34:49;9.80;99.90
24152;DHT22;12311;50.866;4.332;2022-11-11T04:37:16;9.90;99.90
24152;DHT22;12311;50.866;4.332;2022-11-11T04:39:42;9.90;99.90
24152;DHT22;12311;50.866;4.332;2022-11-11T04:42:28;9.80;99.90
24152;DHT22;12311;50.866;4.332;2022-11-11T04:44:54;9.90;99.90
24152;DHT22;12311;50.866;4.332;2022-11-11T04:48:12;9.90;99.90
24152;DHT22;12311;50.866;4.332;2022-11-11T04:50:42;9.80;99.90
24152;DHT22;12311;50.866;4.332;2022-11-11T04:53:10;9.80;99.90
24152;DHT22;12311;50.866;4.332;2022-11-11T04:55:36;9.80;99.90
24152;DHT22;12311;50.866;4.332;2022-11-11T04:58:22;9.80;99.90
24152;DHT22;12311;50.866;4.332;2022-11-11T05:00:48;9.80;99.90
24152;DHT22;12311;50.866;4.332;2022-11-11T05:03:14;9.70;99.90
24152;DHT22;12311;50.866;4.332;2022-11-11T05:05:47;9.70;99.90
24152;DHT22;12311;50.866;4.332;2022-11-11T05:08:32;9.70;99.90
24152;DHT22;12311;50.866;4.332;2022-11-11T05:11:17;9.70;99.90
24152;DHT22;12311;50.866;4.332;2022-11-11T05:13:43;9.60;99.90
24152;DHT22;12311;50.866;4.332;2022-11-11T05:16:29;9.60;99.90
24152;DHT22;12311;50.866;4.332;2022-11-11T05:19:15;9.60;99.90
24152;DHT22;12311;50.866;4.332;2022-11-11T05:22:27;9.60;99.90
24152;DHT22;12311;50.866;4.332;2022-11-11T05:24:54;9.60;99.90
24152;DHT22;12311;50.866;4.332;2022-11-11T05:27:38;9.50;99.90
24152;DHT22;12311;50.866;4.332;2022-11-11T05:30:05;9.50;99.90
24152;DHT22;12311;50.866;4.332;2022-11-11T05:32:32;9.40;99.90
24152;DHT22;12311;50.866;4.332;2022-11-11T05:34:57;9.40;99.90
24152;DHT22;12311;50.866;4.332;2022-11-11T05:37:23;9.40;99.90
24152;DHT22;12311;50.866;4.332;2022-11-11T05:39:49;9.40;99.90
24152;DHT22;12311;50.866;4.332;2022-11-11T05:42:14;9.50;99.90
24152;DHT22;12311;50.866;4.332;2022-11-11T05:44:40;9.50;99.90
24152;DHT22;12311;50.866;4.332;2022-11-11T05:47:06;9.50;99.90
24152;DHT22;12311;50.866;4.332;2022-11-11T05:49:32;9.50;99.90
24152;DHT22;12311;50.866;4.332;2022-11-11T05:51:58;9.60;99.90
24152;DHT22;12311;50.866;4.332;2022-11-11T05:54:24;9.50;99.90
24152;DHT22;12311;50.866;4.332;2022-11-11T05:56:50;9.50;99.90
24152;DHT22;12311;50.866;4.332;2022-11-11T05:59:15;9.40;99.90
24152;DHT22;12311;50.866;4.332;2022-11-11T06:01:41;9.40;99.90
24152;DHT22;12311;50.866;4.332;2022-11-11T06:04:07;9.30;99.90
24152;DHT22;12311;50.866;4.332;2022-11-11T06:06:34;9.30;99.90
24152;DHT22;12311;50.866;4.332;2022-11-11T06:09:00;9.30;99.90
24152;DHT22;12311;50.866;4.332;2022-11-11T06:11:26;9.30;99.90
24152;DHT22;12311;50.866;4.332;2022-11-11T06:13:55;9.30;99.90
24152;DHT22;12311;50.866;4.332;2022-11-11T06:16:21;9.30;99.90
24152;DHT22;12311;50.866;4.332;2022-11-11T06:18:47;9.30;99.90
24152;DHT22;12311;50.866;4.332;2022-11-11T06:21:13;9.40;99.90
24152;DHT22;12311;50.866;4.332;2022-11-11T06:23:39;9.40;99.90
24152;DHT22;12311;50.866;4.332;2022-11-11T06:26:05;9.40;99.90
24152;DHT22;12311;50.866;4.332;2022-11-11T06:31:24;9.40;99.90
24152;DHT22;12311;50.866;4.332;2022-11-11T06:33:51;9.40;99.90
24152;DHT22;12311;50.866;4.332;2022-11-11T06:36:18;9.50;99.90
24152;DHT22;12311;50.866;4.332;2022-11-11T06:38:44;9.50;99.90
24152;DHT22;12311;50.866;4.332;2022-11-11T06:41:10;9.40;99.90
24152;DHT22;12311;50.866;4.332;2022-11-11T06:43:40;9.40;99.90
24152;DHT22;12311;50.866;4.332;2022-11-11T06:46:06;9.40;99.90
24152;DHT22;12311;50.866;4.332;2022-11-11T06:48:32;9.40;99.90
24152;DHT22;12311;50.866;4.332;2022-11-11T06:51:03;9.40;99.90
24152;DHT22;12311;50.866;4.332;2022-11-11T06:53:29;9.40;99.90
24152;DHT22;12311;50.866;4.332;2022-11-11T06:55:55;9.40;99.90
24152;DHT22;12311;50.866;4.332;2022-11-11T06:58:22;9.50;99.90
24152;DHT22;12311;50.866;4.332;2022-11-11T07:00:48;9.50;99.90
24152;DHT22;12311;50.866;4.332;2022-11-11T07:03:19;9.40;99.90
24152;DHT22;12311;50.866;4.332;2022-11-11T07:05:45;9.30;99.90
24152;DHT22;12311;50.866;4.332;2022-11-11T07:08:14;9.30;99.90
24152;DHT22;12311;50.866;4.332;2022-11-11T07:10:43;9.20;99.90
24152;DHT22;12311;50.866;4.332;2022-11-11T07:13:09;9.20;99.90
24152;DHT22;12311;50.866;4.332;2022-11-11T07:15:36;9.20;99.90
24152;DHT22;12311;50.866;4.332;2022-11-11T07:18:01;9.20;99.90
24152;DHT22;12311;50.866;4.332;2022-11-11T07:20:27;9.20;99.90
24152;DHT22;12311;50.866;4.332;2022-11-11T07:22:53;9.10;99.90
24152;DHT22;12311;50.866;4.332;2022-11-11T07:25:19;9.20;99.90
24152;DHT22;12311;50.866;4.332;2022-11-11T07:27:44;9.20;99.90
24152;DHT22;12311;50.866;4.332;2022-11-11T07:30:11;9.10;99.90
24152;DHT22;12311;50.866;4.332;2022-11-11T07:32:43;9.20;99.90
24152;DHT22;12311;50.866;4.332;2022-11-11T07:35:10;9.20;99.90
24152;DHT22;12311;50.866;4.332;2022-11-11T07:37:36;9.30;99.90
24152;DHT22;12311;50.866;4.332;2022-11-11T07:40:02;9.30;99.90
24152;DHT22;12311;50.866;4.332;2022-11-11T07:42:28;9.30;99.90
24152;DHT22;12311;50.866;4.332;2022-11-11T07:44:53;9.30;99.90
24152;DHT22;12311;50.866;4.332;2022-11-11T07:47:19;9.40;99.90
24152;DHT22;12311;50.866;4.332;2022-11-11T07:49:44;9.40;99.90
24152;DHT22;12311;50.866;4.332;2022-11-11T07:52:10;9.40;99.90
24152;DHT22;12311;50.866;4.332;2022-11-11T07:54:36;9.50;99.90
24152;DHT22;12311;50.866;4.332;2022-11-11T07:57:02;9.50;99.90
24152;DHT22;12311;50.866;4.332;2022-11-11T07:59:27;9.50;99.90
24152;DHT22;12311;50.866;4.332;2022-11-11T08:01:53;9.40;99.90
24152;DHT22;12311;50.866;4.332;2022-11-11T08:04:18;9.40;99.90
24152;DHT22;12311;50.866;4.332;2022-11-11T08:06:44;9.40;99.90
24152;DHT22;12311;50.866;4.332;2022-11-11T08:09:10;9.40;99.90
24152;DHT22;12311;50.866;4.332;2022-11-11T08:11:35;9.50;99.90
24152;DHT22;12311;50.866;4.332;2022-11-11T08:14:19;9.50;99.90
24152;DHT22;12311;50.866;4.332;2022-11-11T08:16:45;9.50;99.90
24152;DHT22;12311;50.866;4.332;2022-11-11T08:19:11;9.50;99.90
24152;DHT22;12311;50.866;4.332;2022-11-11T08:21:36;9.60;99.90
24152;DHT22;12311;50.866;4.332;2022-11-11T08:24:02;9.60;99.90
24152;DHT22;12311;50.866;4.332;2022-11-11T08:26:28;9.60;99.90
24152;DHT22;12311;50.866;4.332;2022-11-11T08:28:54;9.60;99.90
24152;DHT22;12311;50.866;4.332;2022-11-11T08:31:19;9.70;99.90
24152;DHT22;12311;50.866;4.332;2022-11-11T08:33:45;9.70;99.90
24152;DHT22;12311;50.866;4.332;2022-11-11T08:36:11;9.80;99.90
24152;DHT22;12311;50.866;4.332;2022-11-11T08:38:37;9.80;99.90
24152;DHT22;12311;50.866;4.332;2022-11-11T08:41:05;9.90;99.90
24152;DHT22;12311;50.866;4.332;2022-11-11T08:43:31;9.90;99.90
24152;DHT22;12311;50.866;4.332;2022-11-11T08:46:01;9.90;99.90
24152;DHT22;12311;50.866;4.332;2022-11-11T08:48:29;9.90;99.90
24152;DHT22;12311;50.866;4.332;2022-11-11T08:50:55;10.00;99.90
24152;DHT22;12311;50.866;4.332;2022-11-11T08:53:21;10.00;99.90
24152;DHT22;12311;50.866;4.332;2022-11-11T08:55:46;10.00;99.90
24152;DHT22;12311;50.866;4.332;2022-11-11T08:58:12;9.90;99.90
24152;DHT22;12311;50.866;4.332;2022-11-11T09:00:38;10.00;99.90
24152;DHT22;12311;50.866;4.332;2022-11-11T09:03:06;10.10;99.90
24152;DHT22;12311;50.866;4.332;2022-11-11T09:05:32;10.10;99.90
24152;DHT22;12311;50.866;4.332;2022-11-11T09:08:03;10.10;99.90
24152;DHT22;12311;50.866;4.332;2022-11-11T09:10:32;10.20;99.90
24152;DHT22;12311;50.866;4.332;2022-11-11T09:12:58;10.30;99.90
24152;DHT22;12311;50.866;4.332;2022-11-11T09:15:24;10.40;99.90
24152;DHT22;12311;50.866;4.332;2022-11-11T09:17:51;10.40;99.90
24152;DHT22;12311;50.866;4.332;2022-11-11T09:20:17;10.50;99.90
24152;DHT22;12311;50.866;4.332;2022-11-11T09:22:44;10.50;99.90
24152;DHT22;12311;50.866;4.332;2022-11-11T09:25:10;10.70;99.90
24152;DHT22;12311;50.866;4.332;2022-11-11T09:27:36;10.80;99.90
24152;DHT22;12311;50.866;4.332;2022-11-11T09:30:02;10.90;99.90
24152;DHT22;12311;50.866;4.332;2022-11-11T09:32:29;11.00;99.90
24152;DHT22;12311;50.866;4.332;2022-11-11T09:34:54;11.00;99.90
24152;DHT22;12311;50.866;4.332;2022-11-11T09:37:21;11.20;99.90
24152;DHT22;12311;50.866;4.332;2022-11-11T09:39:46;11.30;99.90
24152;DHT22;12311;50.866;4.332;2022-11-11T09:42:23;11.30;99.90
24152;DHT22;12311;50.866;4.332;2022-11-11T09:45:19;11.30;99.90
24152;DHT22;12311;50.866;4.332;2022-11-11T09:50:32;11.70;99.90
24152;DHT22;12311;50.866;4.332;2022-11-11T09:53:00;12.10;99.90
24152;DHT22;12311;50.866;4.332;2022-11-11T09:58:13;12.40;99.90
24152;DHT22;12311;50.866;4.332;2022-11-11T10:00:43;12.50;99.90
24152;DHT22;12311;50.866;4.332;2022-11-11T10:03:17;12.60;99.90
24152;DHT22;12311;50.866;4.332;2022-11-11T10:05:49;12.60;99.90
24152;DHT22;12311;50.866;4.332;2022-11-11T10:08:27;12.70;99.90
24152;DHT22;12311;50.866;4.332;2022-11-11T10:10:57;12.90;99.90
24152;DHT22;12311;50.866;4.332;2022-11-11T10:13:34;12.70;99.90
24152;DHT22;12311;50.866;4.332;2022-11-11T10:16:09;12.50;99.90
24152;DHT22;12311;50.866;4.332;2022-11-11T10:21:13;12.50;99.90
24152;DHT22;12311;50.866;4.332;2022-11-11T10:23:39;12.60;99.90
24152;DHT22;12311;50.866;4.332;2022-11-11T10:26:18;12.90;99.90
24152;DHT22;12311;50.866;4.332;2022-11-11T10:28:49;12.90;99.90
24152;DHT22;12311;50.866;4.332;2022-11-11T10:31:20;12.80;99.90
24152;DHT22;12311;50.866;4.332;2022-11-11T10:33:59;13.00;99.90
24152;DHT22;12311;50.866;4.332;2022-11-11T10:36:29;13.00;99.90
24152;DHT22;12311;50.866;4.332;2022-11-11T10:39:00;13.10;99.90
24152;DHT22;12311;50.866;4.332;2022-11-11T10:41:37;13.20;99.90
24152;DHT22;12311;50.866;4.332;2022-11-11T10:44:24;13.40;99.90
24152;DHT22;12311;50.866;4.332;2022-11-11T10:47:00;13.50;99.90
24152;DHT22;12311;50.866;4.332;2022-11-11T10:49:32;13.50;99.90
24152;DHT22;12311;50.866;4.332;2022-11-11T10:52:09;13.60;99.90
24152;DHT22;12311;50.866;4.332;2022-11-11T10:54:49;13.60;99.90
24152;DHT22;12311;50.866;4.332;2022-11-11T10:57:20;13.80;99.90
24152;DHT22;12311;50.866;4.332;2022-11-11T11:00:07;13.90;99.90
24152;DHT22;12311;50.866;4.332;2022-11-11T11:02:51;14.10;99.90
24152;DHT22;12311;50.866;4.332;2022-11-11T11:05:45;14.10;99.90
24152;DHT22;12311;50.866;4.332;2022-11-11T11:08:16;14.00;99.90
24152;DHT22;12311;50.866;4.332;2022-11-11T11:10:48;14.20;99.90
24152;DHT22;12311;50.866;4.332;2022-11-11T11:13:21;14.10;99.90
24152;DHT22;12311;50.866;4.332;2022-11-11T11:16:14;14.30;99.90
24152;DHT22;12311;50.866;4.332;2022-11-11T11:18:37;14.20;99.90
24152;DHT22;12311;50.866;4.332;2022-11-11T11:21:06;14.20;99.90
24152;DHT22;12311;50.866;4.332;2022-11-11T11:23:41;14.10;99.90
24152;DHT22;12311;50.866;4.332;2022-11-11T11:26:10;14.20;99.90
24152;DHT22;12311;50.866;4.332;2022-11-11T11:28:55;14.40;99.90
24152;DHT22;12311;50.866;4.332;2022-11-11T11:31:48;14.30;99.90
24152;DHT22;12311;50.866;4.332;2022-11-11T11:34:14;14.40;99.90
24152;DHT22;12311;50.866;4.332;2022-11-11T11:36:40;14.40;99.90
24152;DHT22;12311;50.866;4.332;2022-11-11T11:39:06;14.50;99.90
24152;DHT22;12311;50.866;4.332;2022-11-11T11:41:37;14.60;99.90
24152;DHT22;12311;50.866;4.332;2022-11-11T11:44:03;14.60;99.90
24152;DHT22;12311;50.866;4.332;2022-11-11T11:46:49;14.60;99.90
24152;DHT22;12311;50.866;4.332;2022-11-11T11:52:50;14.90;99.90
24152;DHT22;12311;50.866;4.332;2022-11-11T12:12:07;15.00;99.90
24152;DHT22;12311;50.866;4.332;2022-11-11T12:20:31;15.80;99.90
24152;DHT22;12311;50.866;4.332;2022-11-11T12:28:41;16.50;99.90
24152;DHT22;12311;50.866;4.332;2022-11-11T12:39:46;15.80;99.90
24152;DHT22;12311;50.866;4.332;2022-11-11T12:45:22;15.90;99.90
24152;DHT22;12311;50.866;4.332;2022-11-11T12:48:02;16.10;99.90
24152;DHT22;12311;50.866;4.332;2022-11-11T12:56:17;15.90;99.90
24152;DHT22;12311;50.866;4.332;2022-11-11T13:10:04;15.80;99.90
24152;DHT22;12311;50.866;4.332;2022-11-11T13:12:47;15.70;99.90
24152;DHT22;12311;50.866;4.332;2022-11-11T13:15:23;15.70;99.90
24152;DHT22;12311;50.866;4.332;2022-11-11T13:17:50;15.50;99.90
24152;DHT22;12311;50.866;4.332;2022-11-11T13:23:19;15.40;99.90
24152;DHT22;12311;50.866;4.332;2022-11-11T13:25:47;15.40;99.90
24152;DHT22;12311;50.866;4.332;2022-11-11T13:28:21;15.50;99.90
24152;DHT22;12311;50.866;4.332;2022-11-11T13:33:26;16.20;99.90
24152;DHT22;12311;50.866;4.332;2022-11-11T13:36:01;16.30;99.90
24152;DHT22;12311;50.866;4.332;2022-11-11T13:38:32;16.50;99.90
24152;DHT22;12311;50.866;4.332;2022-11-11T13:41:03;16.30;99.90
24152;DHT22;12311;50.866;4.332;2022-11-11T13:43:44;16.20;99.90
24152;DHT22;12311;50.866;4.332;2022-11-11T13:48:55;16.00;99.90
24152;DHT22;12311;50.866;4.332;2022-11-11T13:51:34;15.80;99.90
24152;DHT22;12311;50.866;4.332;2022-11-11T13:54:03;15.50;99.90
24152;DHT22;12311;50.866;4.332;2022-11-11T13:56:44;15.30;99.90
24152;DHT22;12311;50.866;4.332;2022-11-11T13:59:26;15.30;99.90
24152;DHT22;12311;50.866;4.332;2022-11-11T14:12:53;15.30;99.90
24152;DHT22;12311;50.866;4.332;2022-11-11T14:15:47;15.50;99.90
24152;DHT22;12311;50.866;4.332;2022-11-11T14:28:58;15.50;99.90
24152;DHT22;12311;50.866;4.332;2022-11-11T14:34:45;15.40;99.90
24152;DHT22;12311;50.866;4.332;2022-11-11T14:37:17;15.40;99.90
24152;DHT22;12311;50.866;4.332;2022-11-11T14:39:53;15.30;99.90
24152;DHT22;12311;50.866;4.332;2022-11-11T14:47:53;15.30;99.90
24152;DHT22;12311;50.866;4.332;2022-11-11T14:50:41;15.30;99.90
24152;DHT22;12311;50.866;4.332;2022-11-11T14:53:23;15.20;99.90
24152;DHT22;12311;50.866;4.332;2022-11-11T14:55:53;15.20;99.90
24152;DHT22;12311;50.866;4.332;2022-11-11T14:58:23;15.10;99.90
24152;DHT22;12311;50.866;4.332;2022-11-11T15:01:03;15.00;99.90
24152;DHT22;12311;50.866;4.332;2022-11-11T15:03:44;15.00;99.90
24152;DHT22;12311;50.866;4.332;2022-11-11T15:06:27;15.00;99.90
24152;DHT22;12311;50.866;4.332;2022-11-11T15:09:29;14.90;99.90
24152;DHT22;12311;50.866;4.332;2022-11-11T15:12:25;14.80;99.90
24152;DHT22;12311;50.866;4.332;2022-11-11T15:29:05;14.30;99.90
24152;DHT22;12311;50.866;4.332;2022-11-11T15:31:50;14.20;99.90
24152;DHT22;12311;50.866;4.332;2022-11-11T15:34:43;14.10;99.90
24152;DHT22;12311;50.866;4.332;2022-11-11T15:37:15;14.20;99.90
24152;DHT22;12311;50.866;4.332;2022-11-11T15:39:49;14.10;99.90
24152;DHT22;12311;50.866;4.332;2022-11-11T15:42:36;14.00;99.90
24152;DHT22;12311;50.866;4.332;2022-11-11T15:47:44;14.00;99.90
24152;DHT22;12311;50.866;4.332;2022-11-11T15:52:56;13.90;99.90
24152;DHT22;12311;50.866;4.332;2022-11-11T15:55:28;13.80;99.90
24152;DHT22;12311;50.866;4.332;2022-11-11T15:57:54;13.70;99.90
24152;DHT22;12311;50.866;4.332;2022-11-11T16:00:32;13.80;99.90
24152;DHT22;12311;50.866;4.332;2022-11-11T16:02:58;13.70;99.90
24152;DHT22;12311;50.866;4.332;2022-11-11T16:05:26;13.60;99.90
24152;DHT22;12311;50.866;4.332;2022-11-11T16:07:55;13.50;99.90
24152;DHT22;12311;50.866;4.332;2022-11-11T16:10:40;13.50;99.90
24152;DHT22;12311;50.866;4.332;2022-11-11T16:13:13;13.50;99.90
24152;DHT22;12311;50.866;4.332;2022-11-11T16:15:44;13.40;99.90
24152;DHT22;12311;50.866;4.332;2022-11-11T16:18:19;13.40;99.90
24152;DHT22;12311;50.866;4.332;2022-11-11T16:23:37;13.40;99.90
24152;DHT22;12311;50.866;4.332;2022-11-11T16:26:03;13.30;99.90
24152;DHT22;12311;50.866;4.332;2022-11-11T16:28:43;13.20;99.90
24152;DHT22;12311;50.866;4.332;2022-11-11T16:31:40;13.20;99.90
24152;DHT22;12311;50.866;4.332;2022-11-11T16:34:40;13.10;99.90
24152;DHT22;12311;50.866;4.332;2022-11-11T16:37:09;13.00;99.90
24152;DHT22;12311;50.866;4.332;2022-11-11T16:39:36;13.00;99.90
24152;DHT22;12311;50.866;4.332;2022-11-11T16:42:06;13.00;99.90
24152;DHT22;12311;50.866;4.332;2022-11-11T16:45:05;13.00;99.90
24152;DHT22;12311;50.866;4.332;2022-11-11T16:47:43;13.00;99.90
24152;DHT22;12311;50.866;4.332;2022-11-11T16:50:23;13.00;99.90
24152;DHT22;12311;50.866;4.332;2022-11-11T16:52:58;12.90;99.90
24152;DHT22;12311;50.866;4.332;2022-11-11T16:55:26;12.90;99.90
24152;DHT22;12311;50.866;4.332;2022-11-11T16:57:59;12.80;99.90
24152;DHT22;12311;50.866;4.332;2022-11-11T17:00:26;12.80;99.90
24152;DHT22;12311;50.866;4.332;2022-11-11T17:05:57;12.70;99.90
24152;DHT22;12311;50.866;4.332;2022-11-11T17:08:41;12.70;99.90
24152;DHT22;12311;50.866;4.332;2022-11-11T17:13:53;12.60;99.90
24152;DHT22;12311;50.866;4.332;2022-11-11T17:16:18;12.60;99.90
24152;DHT22;12311;50.866;4.332;2022-11-11T17:18:44;12.60;99.90
24152;DHT22;12311;50.866;4.332;2022-11-11T17:21:11;12.60;99.90
24152;DHT22;12311;50.866;4.332;2022-11-11T17:23:37;12.50;99.90
24152;DHT22;12311;50.866;4.332;2022-11-11T17:26:03;12.50;99.90
24152;DHT22;12311;50.866;4.332;2022-11-11T17:28:33;12.50;99.90
24152;DHT22;12311;50.866;4.332;2022-11-11T17:31:10;12.50;99.90
24152;DHT22;12311;50.866;4.332;2022-11-11T17:33:36;12.50;99.90
24152;DHT22;12311;50.866;4.332;2022-11-11T17:36:02;12.50;99.90
24152;DHT22;12311;50.866;4.332;2022-11-11T17:38:28;12.50;99.90
24152;DHT22;12311;50.866;4.332;2022-11-11T17:40:56;12.40;99.90
24152;DHT22;12311;50.866;4.332;2022-11-11T17:43:22;12.50;99.90
24152;DHT22;12311;50.866;4.332;2022-11-11T17:45:49;12.50;99.90
24152;DHT22;12311;50.866;4.332;2022-11-11T17:48:15;12.40;99.90
24152;DHT22;12311;50.866;4.332;2022-11-11T17:50:41;12.40;99.90
24152;DHT22;12311;50.866;4.332;2022-11-11T17:53:07;12.40;99.90
24152;DHT22;12311;50.866;4.332;2022-11-11T17:55:33;12.40;99.90
24152;DHT22;12311;50.866;4.332;2022-11-11T17:57:59;12.50;99.90
24152;DHT22;12311;50.866;4.332;2022-11-11T18:00:25;12.40;99.90
24152;DHT22;12311;50.866;4.332;2022-11-11T18:02:51;12.40;99.90
24152;DHT22;12311;50.866;4.332;2022-11-11T18:05:17;12.40;99.90
24152;DHT22;12311;50.866;4.332;2022-11-11T18:07:43;12.40;99.90
24152;DHT22;12311;50.866;4.332;2022-11-11T18:10:09;12.30;99.90
24152;DHT22;12311;50.866;4.332;2022-11-11T18:12:36;12.20;99.90
24152;DHT22;12311;50.866;4.332;2022-11-11T18:15:02;12.10;99.90
24152;DHT22;12311;50.866;4.332;2022-11-11T18:17:28;12.10;99.90
24152;DHT22;12311;50.866;4.332;2022-11-11T18:19:54;12.10;99.90
24152;DHT22;12311;50.866;4.332;2022-11-11T18:22:19;12.10;99.90
24152;DHT22;12311;50.866;4.332;2022-11-11T18:24:45;12.10;99.90
24152;DHT22;12311;50.866;4.332;2022-11-11T18:27:11;12.20;99.90